LDSB

Brač Airport

Airport
ICAO code
LDSB
IATA Code
BWK
Summary
ICAO Region
EUR
ICAO Territory
Location

Bol, Brač

Serving
Brač
Elevation
1781 ft
Coordinates
43° 17' 9" N , 16° 40' 47" E
KCC
Csa
Metar
Observation
LDSB 080730Z 12006KT 060V160 CAVOK 28/13 Q1017
Station
Brac
Date/Time
2022-08-08 07:30:00
Wind direction
120°
Wind speed
06 kts
Lowest cloud amount
clouds and visibility OK
Temperature
28°C
Dew point
13°C
Humidity
39%
QNH
1017 hPa
Weather condition
n/a

Brač Airport is an airport on the Croatian island of Brač, close to the town of Bol, after which it is sometimes also named informally.

Climatology

Warm mediterranean climate (Köppen climate classification Csa)

Runways

Designator Length Width Surface Rops
4/22 1440 30 ASP No/No

Airport map

Aerial View

SKYbrary Partners:

Safety knowledge contributed by: